Time;durP1;ratioP1;P1;durP2;ratioP2;P2;SDS_P1;SDS_P2;PMS_P1;PMS_P2;Temp;Humidity;BMP_temperature;BMP_pressure;BME280_temperature;BME280_humidity;BME280_pressure;Samples;Min_cycle;Max_cycle;Signal;HPM_P1;HPM_P2
2022/11/09 00:02:14;;;;;;;3.65;1.40;;;13.30;99.90;;;;;;4821600;29;20034;-79
2022/11/09 00:04:39;;;;;;;6.78;1.80;;;13.30;99.90;;;;;;4821492;29;20102;-79
2022/11/09 00:07:05;;;;;;;6.22;1.90;;;13.30;99.90;;;;;;4823890;29;20054;-79
2022/11/09 00:09:30;;;;;;;6.55;2.65;;;13.20;99.90;;;;;;4808761;29;20527;-79
2022/11/09 00:11:56;;;;;;;7.93;1.63;;;13.20;99.90;;;;;;4822298;29;20050;-79
2022/11/09 00:14:21;;;;;;;8.05;2.20;;;13.20;99.90;;;;;;4822345;29;20041;-79
2022/11/09 00:16:47;;;;;;;6.68;1.58;;;13.20;99.90;;;;;;4823255;29;20575;-79
2022/11/09 00:19:12;;;;;;;6.75;1.30;;;13.10;99.90;;;;;;4808968;29;20497;-80
2022/11/09 00:21:39;;;;;;;5.55;1.60;;;13.10;99.90;;;;;;4823725;29;20560;-79
2022/11/09 00:24:05;;;;;;;8.32;2.03;;;13.10;99.90;;;;;;4823961;29;20417;-80
2022/11/09 00:26:32;;;;;;;6.57;1.35;;;13.10;99.90;;;;;;4826723;29;20060;-79
2022/11/09 00:28:58;;;;;;;8.27;1.42;;;13.10;99.90;;;;;;4823724;29;20089;-78
2022/11/09 00:31:24;;;;;;;3.33;0.98;;;13.00;99.90;;;;;;4823475;29;20049;-79
2022/11/09 00:33:51;;;;;;;4.32;1.08;;;12.90;99.90;;;;;;4823361;29;20037;-79
2022/11/09 00:36:18;;;;;;;5.28;1.30;;;12.90;99.90;;;;;;4824373;29;20049;-80
2022/11/09 00:38:49;;;;;;;6.53;1.80;;;12.90;99.90;;;;;;4820563;29;20140;-79
2022/11/09 00:41:14;;;;;;;4.97;1.50;;;12.90;99.90;;;;;;4823984;29;20089;-79
2022/11/09 00:43:40;;;;;;;4.38;1.13;;;12.90;99.90;;;;;;4825096;29;20046;-79
2022/11/09 00:46:06;;;;;;;5.70;1.60;;;12.80;99.90;;;;;;4822711;29;20084;-79
2022/11/09 00:48:32;;;;;;;4.22;1.30;;;12.90;99.90;;;;;;4823980;29;20076;-80
2022/11/09 00:50:58;;;;;;;5.18;1.25;;;12.90;99.90;;;;;;4823096;29;20547;-81
2022/11/09 00:53:25;;;;;;;6.00;1.08;;;12.90;99.90;;;;;;4822451;29;20042;-80
2022/11/09 00:55:54;;;;;;;6.97;1.98;;;12.90;99.90;;;;;;4823788;29;20600;-79
2022/11/09 00:58:20;;;;;;;7.93;1.75;;;12.90;99.90;;;;;;4822312;29;20054;-79
2022/11/09 01:00:45;;;;;;;5.93;1.88;;;13.00;99.90;;;;;;4822871;29;20125;-79
2022/11/09 01:03:11;;;;;;;4.78;1.58;;;12.90;99.90;;;;;;4821182;29;20483;-79
2022/11/09 01:05:40;;;;;;;5.00;1.50;;;13.00;99.90;;;;;;4806626;29;20030;-80
2022/11/09 01:08:06;;;;;;;5.68;1.10;;;12.90;99.90;;;;;;4826101;29;20067;-79
2022/11/09 01:10:32;;;;;;;7.75;1.45;;;13.00;99.90;;;;;;4820039;29;20050;-79
2022/11/09 01:12:57;;;;;;;4.53;1.20;;;12.90;99.90;;;;;;4824174;29;20116;-79
2022/11/09 01:15:23;;;;;;;6.22;1.27;;;12.90;99.90;;;;;;4821856;29;20046;-82
2022/11/09 01:17:48;;;;;;;5.25;1.30;;;12.90;99.90;;;;;;4821940;29;20064;-79
2022/11/09 01:20:15;;;;;;;13.95;2.20;;;12.90;99.90;;;;;;4822485;29;20054;-79
2022/11/09 01:22:41;;;;;;;7.68;1.38;;;12.90;99.90;;;;;;4827681;29;20081;-79
2022/11/09 01:25:07;;;;;;;6.05;1.58;;;12.90;99.90;;;;;;4808257;29;20049;-79
2022/11/09 01:27:33;;;;;;;9.05;1.38;;;12.90;99.90;;;;;;4821981;29;20552;-79
2022/11/09 01:29:59;;;;;;;8.88;1.80;;;12.90;99.90;;;;;;4823460;29;20050;-79
2022/11/09 01:32:24;;;;;;;6.70;1.08;;;12.90;99.90;;;;;;4809623;29;20046;-79
2022/11/09 01:34:50;;;;;;;8.82;1.98;;;12.90;99.90;;;;;;4821561;29;20102;-79
2022/11/09 01:37:16;;;;;;;8.02;2.28;;;12.90;99.90;;;;;;4823453;29;20041;-79
2022/11/09 01:39:41;;;;;;;7.22;2.13;;;12.90;99.90;;;;;;4828208;29;20124;-79
2022/11/09 01:42:07;;;;;;;10.65;2.65;;;12.90;99.90;;;;;;4821965;29;20049;-79
2022/11/09 01:44:36;;;;;;;5.47;1.58;;;12.90;99.90;;;;;;4821051;29;20050;-79
2022/11/09 01:47:22;;;;;;;3.90;1.08;;;12.90;99.90;;;;;;4821827;29;20458;-79
2022/11/09 01:49:55;;;;;;;5.80;1.10;;;12.80;99.90;;;;;;4821018;29;20046;-79
2022/11/09 01:52:34;;;;;;;7.82;1.70;;;12.80;99.90;;;;;;4823056;29;20037;-79
2022/11/09 01:55:06;;;;;;;8.40;1.38;;;12.80;99.90;;;;;;4824075;29;20128;-80
2022/11/09 01:58:00;;;;;;;7.03;1.35;;;12.90;99.90;;;;;;4822114;29;20052;-80
2022/11/09 02:00:27;;;;;;;9.85;1.70;;;12.80;99.90;;;;;;4821432;29;20117;-79
2022/11/09 02:03:08;;;;;;;8.48;1.83;;;12.80;99.90;;;;;;4818141;29;20042;-79
2022/11/09 02:05:36;;;;;;;5.88;1.13;;;12.80;99.90;;;;;;4822595;29;20171;-79
2022/11/09 02:08:05;;;;;;;9.32;1.45;;;12.80;99.90;;;;;;4823645;29;20115;-79
2022/11/09 02:10:46;;;;;;;10.35;1.45;;;12.70;99.90;;;;;;4839812;29;20033;-78
2022/11/09 02:13:15;;;;;;;3.88;1.38;;;12.70;99.90;;;;;;4822539;29;20062;-79
2022/11/09 02:15:41;;;;;;;5.47;1.35;;;12.70;99.90;;;;;;4805146;29;20057;-79
2022/11/09 02:18:07;;;;;;;5.97;1.52;;;12.70;99.90;;;;;;4806301;29;20042;-79
2022/11/09 02:20:51;;;;;;;6.30;1.85;;;12.60;99.90;;;;;;4825355;29;20046;-79
2022/11/09 02:23:24;;;;;;;5.18;1.70;;;12.70;99.90;;;;;;4825259;29;20054;-79
2022/11/09 02:25:58;;;;;;;4.93;1.52;;;12.60;99.90;;;;;;4823409;29;20525;-79
2022/11/09 02:28:25;;;;;;;4.53;0.98;;;12.60;99.90;;;;;;4806705;29;20082;-79
2022/11/09 02:30:54;;;;;;;11.10;2.05;;;12.60;99.90;;;;;;4820507;29;20053;-79
2022/11/09 02:33:20;;;;;;;7.05;1.50;;;12.60;99.90;;;;;;4821548;29;20053;-79
2022/11/09 02:35:45;;;;;;;8.35;1.67;;;12.60;99.90;;;;;;4820958;29;20354;-79
2022/11/09 02:38:12;;;;;;;9.05;1.48;;;12.60;99.90;;;;;;4823331;29;20040;-79
2022/11/09 02:40:41;;;;;;;5.93;1.60;;;12.60;99.90;;;;;;4818334;29;20054;-80
2022/11/09 02:43:08;;;;;;;8.50;2.35;;;12.60;99.90;;;;;;4821744;29;20053;-79
2022/11/09 02:45:34;;;;;;;6.07;1.17;;;12.50;99.90;;;;;;4803773;29;20062;-79
2022/11/09 02:48:00;;;;;;;5.13;1.10;;;12.50;99.90;;;;;;4823698;29;20076;-78
2022/11/09 02:50:25;;;;;;;7.57;1.58;;;12.50;99.90;;;;;;4821895;29;20577;-81
2022/11/09 02:52:51;;;;;;;8.32;1.98;;;12.50;99.90;;;;;;4821213;29;20076;-79
2022/11/09 02:55:17;;;;;;;7.22;1.83;;;12.50;99.90;;;;;;4820485;29;20416;-80
2022/11/09 02:57:43;;;;;;;9.88;2.22;;;12.40;99.90;;;;;;4806566;29;20058;-80
2022/11/09 03:00:09;;;;;;;4.97;1.40;;;12.40;99.90;;;;;;4824544;29;20509;-80
2022/11/09 03:02:35;;;;;;;6.20;1.30;;;12.40;99.90;;;;;;4817139;29;20045;-80
2022/11/09 03:05:00;;;;;;;6.03;1.10;;;12.40;99.90;;;;;;4820486;29;20049;-78
2022/11/09 03:07:26;;;;;;;7.95;2.10;;;12.50;99.90;;;;;;4806827;29;20048;-79
2022/11/09 03:09:52;;;;;;;5.57;1.50;;;12.40;99.90;;;;;;4824946;29;20049;-79
2022/11/09 03:12:27;;;;;;;8.45;1.58;;;12.40;99.90;;;;;;4822254;29;20099;-79
2022/11/09 03:14:57;;;;;;;8.50;1.73;;;12.40;99.90;;;;;;4808658;29;20098;-78
2022/11/09 03:17:23;;;;;;;9.50;1.50;;;12.40;99.90;;;;;;4822513;29;20062;-78
2022/11/09 03:19:49;;;;;;;10.40;1.60;;;12.50;99.90;;;;;;4826308;29;20072;-79
2022/11/09 03:22:14;;;;;;;10.90;1.98;;;12.30;99.90;;;;;;4825289;29;20048;-79
2022/11/09 03:24:40;;;;;;;11.18;1.70;;;12.30;99.90;;;;;;4828329;29;20052;-80
2022/11/09 03:27:06;;;;;;;11.10;2.17;;;12.40;99.90;;;;;;4824827;29;20038;-78
2022/11/09 03:29:32;;;;;;;9.70;1.20;;;12.30;99.90;;;;;;4823144;29;20046;-78
2022/11/09 03:31:58;;;;;;;7.55;1.50;;;12.30;99.90;;;;;;4824264;29;21161;-80
2022/11/09 03:34:23;;;;;;;9.20;1.73;;;12.20;99.90;;;;;;4817689;29;20109;-78
2022/11/09 03:36:49;;;;;;;9.52;1.60;;;12.30;99.90;;;;;;4826566;29;20042;-80
2022/11/09 03:39:15;;;;;;;10.68;2.13;;;12.20;99.90;;;;;;4826370;29;20077;-79
2022/11/09 03:41:40;;;;;;;7.43;1.55;;;12.30;99.90;;;;;;4808653;29;20492;-78
2022/11/09 03:44:06;;;;;;;10.38;1.55;;;12.20;99.90;;;;;;4825319;29;20493;-78
2022/11/09 03:46:31;;;;;;;8.32;1.00;;;12.20;99.90;;;;;;4806317;29;20054;-78
2022/11/09 03:48:57;;;;;;;9.20;2.20;;;12.10;99.90;;;;;;4821192;29;20053;-79
2022/11/09 03:51:22;;;;;;;7.30;1.65;;;12.20;99.90;;;;;;4821721;29;20034;-78
2022/11/09 03:53:48;;;;;;;9.18;1.83;;;12.10;99.90;;;;;;4808762;29;20077;-78
2022/11/09 03:56:14;;;;;;;11.02;2.63;;;12.20;99.90;;;;;;4825620;29;20073;-78
2022/11/09 03:58:39;;;;;;;9.43;1.77;;;12.10;99.90;;;;;;4827635;29;20037;-79
2022/11/09 04:01:05;;;;;;;9.38;1.63;;;12.10;99.90;;;;;;4827116;29;20535;-78
2022/11/09 04:03:30;;;;;;;6.95;1.83;;;12.10;99.90;;;;;;4811882;29;20053;-78
2022/11/09 04:05:59;;;;;;;10.73;1.88;;;12.10;99.90;;;;;;4822437;29;20057;-79
2022/11/09 04:08:24;;;;;;;9.25;1.65;;;12.10;99.90;;;;;;4824800;29;20085;-80
2022/11/09 04:10:50;;;;;;;7.65;1.63;;;12.10;99.90;;;;;;4826636;29;20066;-78
2022/11/09 04:13:15;;;;;;;6.00;1.23;;;12.10;99.90;;;;;;4821612;29;20052;-78
2022/11/09 04:15:42;;;;;;;7.65;1.52;;;12.10;99.90;;;;;;4823547;29;20057;-78
2022/11/09 04:18:11;;;;;;;7.40;1.50;;;12.10;99.90;;;;;;4822262;29;20079;-79
2022/11/09 04:20:37;;;;;;;10.13;1.88;;;12.10;99.90;;;;;;4824362;29;20068;-78
2022/11/09 04:23:04;;;;;;;8.02;1.52;;;12.10;99.90;;;;;;4822368;29;20483;-78
2022/11/09 04:25:35;;;;;;;8.50;1.98;;;12.10;99.90;;;;;;4822422;29;20441;-78
2022/11/09 04:28:02;;;;;;;8.95;1.42;;;12.00;99.90;;;;;;4824021;29;20057;-78
2022/11/09 04:30:29;;;;;;;10.88;1.50;;;12.00;99.90;;;;;;4823043;29;20094;-78
2022/11/09 04:32:56;;;;;;;6.55;1.00;;;12.00;99.90;;;;;;4826798;29;20042;-81
2022/11/09 04:35:22;;;;;;;5.45;1.40;;;12.10;99.90;;;;;;4824668;29;20061;-78
2022/11/09 04:37:55;;;;;;;8.88;2.15;;;12.00;99.90;;;;;;4818841;29;20141;-78
2022/11/09 04:40:22;;;;;;;10.88;1.25;;;12.00;99.90;;;;;;4823815;29;20042;-78
2022/11/09 04:42:47;;;;;;;6.90;1.48;;;12.00;99.90;;;;;;4809619;29;20037;-79
2022/11/09 04:45:13;;;;;;;7.20;1.27;;;12.00;99.90;;;;;;4825021;29;20042;-80
2022/11/09 04:47:39;;;;;;;8.25;1.38;;;12.00;99.90;;;;;;4824651;29;20054;-79
2022/11/09 04:50:05;;;;;;;8.02;1.80;;;12.00;99.90;;;;;;4825240;29;20041;-78
2022/11/09 04:52:30;;;;;;;8.55;1.48;;;12.00;99.90;;;;;;4823383;29;20084;-78
2022/11/09 04:54:56;;;;;;;10.70;2.50;;;12.00;99.90;;;;;;4821281;29;20065;-78
2022/11/09 04:57:22;;;;;;;8.27;1.58;;;12.10;99.90;;;;;;4811189;29;20081;-78
2022/11/09 04:59:47;;;;;;;10.57;1.70;;;12.10;99.90;;;;;;4823236;29;20057;-78
2022/11/09 05:02:13;;;;;;;9.02;1.58;;;12.10;99.90;;;;;;4820022;29;21555;-78
2022/11/09 05:04:38;;;;;;;8.65;1.95;;;12.20;99.90;;;;;;4819257;29;20490;-79
2022/11/09 05:07:04;;;;;;;7.60;1.25;;;12.20;99.90;;;;;;4840130;29;20457;-81
2022/11/09 05:09:29;;;;;;;8.80;1.95;;;12.20;99.90;;;;;;4812751;29;20053;-77
2022/11/09 05:11:55;;;;;;;8.48;1.40;;;12.30;99.90;;;;;;4824989;29;20124;-78
2022/11/09 05:14:20;;;;;;;8.35;1.58;;;12.30;99.90;;;;;;4823895;29;20033;-79
2022/11/09 05:16:46;;;;;;;4.53;1.38;;;12.30;99.90;;;;;;4825221;29;20042;-79
2022/11/09 05:19:11;;;;;;;4.78;1.20;;;12.30;99.90;;;;;;4830720;29;20046;-80
2022/11/09 05:21:37;;;;;;;14.70;1.67;;;12.40;99.90;;;;;;4823514;29;20486;-79
2022/11/09 05:24:03;;;;;;;6.57;1.50;;;12.40;99.90;;;;;;4809137;29;20106;-80
2022/11/09 05:26:37;;;;;;;7.68;1.30;;;12.30;99.90;;;;;;4822483;29;20062;-79
2022/11/09 05:29:06;;;;;;;8.63;1.40;;;12.40;99.90;;;;;;4828108;29;20041;-83
2022/11/09 05:31:33;;;;;;;10.38;1.63;;;12.40;99.90;;;;;;4828181;29;20076;-78
2022/11/09 05:33:59;;;;;;;6.65;1.70;;;12.30;99.90;;;;;;4823221;29;20405;-81
2022/11/09 05:36:34;;;;;;;7.10;2.05;;;12.30;99.90;;;;;;4806006;29;20569;-78
2022/11/09 05:39:00;;;;;;;6.93;1.92;;;12.20;99.90;;;;;;4825991;29;20125;-81
2022/11/09 05:41:26;;;;;;;8.45;1.75;;;12.20;99.90;;;;;;4809998;29;20140;-80
2022/11/09 05:43:52;;;;;;;6.82;1.48;;;12.20;99.90;;;;;;4831251;29;20132;-80
2022/11/09 05:46:21;;;;;;;8.95;1.50;;;12.10;99.90;;;;;;4804458;29;20046;-80
2022/11/09 05:48:47;;;;;;;11.93;1.40;;;12.50;99.90;;;;;;4828873;29;20045;-80
2022/11/09 05:51:14;;;;;;;6.68;1.30;;;12.10;99.90;;;;;;4809316;29;20045;-81
2022/11/09 05:53:39;;;;;;;10.20;2.30;;;12.00;99.90;;;;;;4822299;29;20046;-80
2022/11/09 05:56:08;;;;;;;7.40;1.95;;;12.00;99.90;;;;;;4822423;29;20497;-81
2022/11/09 05:58:37;;;;;;;9.93;1.50;;;12.00;99.90;;;;;;4809694;29;20060;-80
2022/11/09 06:01:11;;;;;;;7.93;1.27;;;12.00;99.90;;;;;;4827105;29;20049;-83
2022/11/09 06:03:39;;;;;;;8.75;1.77;;;12.00;99.90;;;;;;4816231;29;20109;-84
2022/11/09 06:06:28;;;;;;;8.50;1.67;;;11.90;99.90;;;;;;4817164;29;20042;-86
2022/11/09 06:08:54;;;;;;;41.55;3.03;;;11.90;99.90;;;;;;4827345;29;20037;-81
2022/11/09 06:11:20;;;;;;;7.63;1.48;;;11.90;99.90;;;;;;4834975;29;20042;-81
2022/11/09 06:13:45;;;;;;;7.28;1.77;;;11.90;99.90;;;;;;4831709;29;20049;-81
2022/11/09 06:16:14;;;;;;;10.32;1.48;;;11.90;99.90;;;;;;4815501;29;20042;-82
2022/11/09 06:18:39;;;;;;;9.13;2.20;;;11.90;99.90;;;;;;4817289;29;20050;-81
2022/11/09 06:21:09;;;;;;;10.65;1.60;;;11.80;99.90;;;;;;4833279;29;20101;-84
2022/11/09 06:23:34;;;;;;;12.82;2.20;;;11.80;99.90;;;;;;4817748;29;20052;-80
2022/11/09 06:26:05;;;;;;;9.05;1.55;;;11.80;99.90;;;;;;4816277;29;20042;-81
2022/11/09 06:28:33;;;;;;;7.65;1.60;;;11.80;99.90;;;;;;4828312;29;20046;-80
2022/11/09 06:31:00;;;;;;;11.40;1.60;;;11.80;99.90;;;;;;4830811;29;20049;-82
2022/11/09 06:33:28;;;;;;;11.05;1.98;;;11.80;99.90;;;;;;4829676;29;20046;-80
2022/11/09 06:35:56;;;;;;;9.70;1.50;;;11.20;99.90;;;;;;4826421;29;20045;-84
2022/11/09 06:38:21;;;;;;;8.70;1.45;;;11.70;99.90;;;;;;4831334;29;20084;-80
2022/11/09 06:40:51;;;;;;;13.10;1.05;;;11.70;99.90;;;;;;4833420;29;20077;-81
2022/11/09 06:43:16;;;;;;;8.82;1.45;;;11.70;99.90;;;;;;4812972;29;20046;-82
2022/11/09 06:45:42;;;;;;;9.95;1.95;;;11.80;99.90;;;;;;4830053;29;20517;-84
2022/11/09 06:48:09;;;;;;;9.73;1.58;;;11.80;99.90;;;;;;4818421;29;20076;-80
2022/11/09 06:50:35;;;;;;;10.60;1.88;;;11.70;99.90;;;;;;4813221;29;20057;-84
2022/11/09 06:53:20;;;;;;;14.43;1.77;;;11.80;99.90;;;;;;4833925;29;20040;-84
2022/11/09 06:57:01;;;;;;;12.68;2.17;;;12.80;99.90;;;;;;4831566;29;20049;-85
2022/11/09 06:59:48;;;;;;;9.27;1.70;;;11.80;99.90;;;;;;4755563;30;20056;-81
2022/11/09 07:02:16;;;;;;;8.88;2.00;;;11.80;99.90;;;;;;4736839;30;20764;-83
2022/11/09 07:04:45;;;;;;;13.27;1.92;;;11.80;99.90;;;;;;4779479;29;20055;-83
2022/11/09 07:07:12;;;;;;;8.88;1.85;;;11.80;99.90;;;;;;4819616;29;20060;-82
2022/11/09 07:09:37;;;;;;;7.15;1.40;;;11.80;99.90;;;;;;4827620;29;20490;-85
2022/11/09 07:12:03;;;;;;;9.77;1.58;;;11.80;99.90;;;;;;4814395;29;20060;-84
2022/11/09 07:14:29;;;;;;;10.05;1.88;;;11.80;99.90;;;;;;4817268;29;20038;-82
2022/11/09 07:16:54;;;;;;;10.38;1.80;;;11.80;99.90;;;;;;4819904;29;20050;-82
2022/11/09 07:19:21;;;;;;;10.18;1.55;;;11.80;99.90;;;;;;4814886;29;20057;-82
2022/11/09 07:22:01;;;;;;;14.77;2.15;;;11.80;99.90;;;;;;4838279;29;20061;-85
2022/11/09 07:24:26;;;;;;;10.77;1.90;;;11.80;99.90;;;;;;4821814;29;20042;-81
2022/11/09 07:26:52;;;;;;;8.02;1.50;;;11.80;99.90;;;;;;4814477;29;20075;-82
2022/11/09 07:29:17;;;;;;;14.20;2.00;;;11.70;99.90;;;;;;4818594;29;20075;-86
2022/11/09 07:31:49;;;;;;;10.63;1.92;;;11.70;99.90;;;;;;4819100;29;20096;-82
2022/11/09 07:34:15;;;;;;;10.50;1.45;;;11.80;99.90;;;;;;4816079;29;20394;-82
2022/11/09 07:36:40;;;;;;;8.45;1.60;;;11.80;99.90;;;;;;4816249;29;20049;-82
2022/11/09 07:39:06;;;;;;;11.80;1.95;;;11.70;99.90;;;;;;4806171;29;20183;-85
2022/11/09 07:41:32;;;;;;;12.07;1.70;;;11.80;99.90;;;;;;4826293;29;20121;-82
2022/11/09 07:44:13;;;;;;;10.90;2.10;;;11.80;99.90;;;;;;4819723;29;20049;-83
2022/11/09 07:46:39;;;;;;;14.15;2.17;;;11.80;99.90;;;;;;4818711;29;20050;-82
2022/11/09 07:49:05;;;;;;;7.68;1.15;;;12.00;99.90;;;;;;4820430;29;20089;-84
2022/11/09 07:51:41;;;;;;;11.50;1.77;;;11.80;99.90;;;;;;4847039;29;20054;-85
2022/11/09 07:54:07;;;;;;;9.43;1.98;;;11.80;99.90;;;;;;4836143;29;20046;-81
2022/11/09 07:56:33;;;;;;;10.82;1.95;;;11.80;99.90;;;;;;4812845;29;20680;-84
2022/11/09 07:58:58;;;;;;;15.00;2.53;;;11.80;99.90;;;;;;4841670;29;20077;-82
2022/11/09 08:01:24;;;;;;;20.80;2.10;;;11.90;99.90;;;;;;4818937;29;20082;-86
2022/11/09 08:03:55;;;;;;;8.27;1.77;;;11.90;99.90;;;;;;4833814;29;20073;-82
2022/11/09 08:06:28;;;;;;;11.43;2.03;;;11.90;99.90;;;;;;4834712;29;20082;-82
2022/11/09 08:08:56;;;;;;;15.55;2.70;;;12.00;99.90;;;;;;4845521;29;20078;-83
2022/11/09 08:11:23;;;;;;;14.43;2.35;;;11.90;99.90;;;;;;4824192;29;20052;-83
2022/11/09 08:13:51;;;;;;;9.90;2.00;;;12.00;99.90;;;;;;4823726;29;20041;-82
2022/11/09 08:16:23;;;;;;;19.75;3.00;;;11.80;99.90;;;;;;4822584;29;20058;-84
2022/11/09 08:18:50;;;;;;;36.70;2.78;;;12.10;99.90;;;;;;4838960;29;20056;-84
2022/11/09 08:21:17;;;;;;;10.02;2.58;;;12.60;99.90;;;;;;4822187;29;20073;-84
2022/11/09 08:23:43;;;;;;;9.10;1.65;;;12.10;99.90;;;;;;4818779;29;20140;-82
2022/11/09 08:26:10;;;;;;;15.48;2.97;;;12.20;99.90;;;;;;4820961;29;20046;-82
2022/11/09 08:28:46;;;;;;;11.70;1.73;;;12.30;99.90;;;;;;4835191;29;20102;-84
2022/11/09 08:31:14;;;;;;;11.40;1.73;;;12.30;99.90;;;;;;4820209;29;20056;-81
2022/11/09 08:33:40;;;;;;;15.05;2.17;;;12.30;99.90;;;;;;4825547;29;20052;-81
2022/11/09 08:36:17;;;;;;;17.77;2.10;;;12.40;99.90;;;;;;4827213;29;20053;-82
2022/11/09 08:38:44;;;;;;;10.10;1.90;;;12.40;99.90;;;;;;4820935;29;20042;-82
2022/11/09 08:41:11;;;;;;;37.67;4.50;;;12.50;99.90;;;;;;4837544;29;20579;-84
2022/11/09 08:43:37;;;;;;;12.07;1.95;;;12.50;99.90;;;;;;4824246;29;20122;-82
2022/11/09 08:46:03;;;;;;;21.10;3.35;;;12.50;99.90;;;;;;4821013;29;20037;-82
2022/11/09 08:48:49;;;;;;;14.20;2.25;;;12.50;99.90;;;;;;4821698;29;20104;-81
2022/11/09 08:51:14;;;;;;;11.77;2.58;;;12.70;99.90;;;;;;4811299;29;20084;-82
2022/11/09 08:53:40;;;;;;;7.72;2.10;;;12.70;99.90;;;;;;4824026;29;20042;-82
2022/11/09 08:56:17;;;;;;;10.27;2.40;;;12.80;99.90;;;;;;4825994;29;20101;-82
2022/11/09 08:58:49;;;;;;;11.85;1.60;;;12.90;99.90;;;;;;4830580;29;20617;-86
2022/11/09 09:01:16;;;;;;;16.02;2.97;;;12.80;99.90;;;;;;4822515;29;20082;-82
2022/11/09 09:03:49;;;;;;;8.25;1.63;;;12.90;99.90;;;;;;4819586;29;20417;-87
2022/11/09 09:06:21;;;;;;;12.57;1.92;;;12.90;99.90;;;;;;4815569;29;20046;-82
2022/11/09 09:09:04;;;;;;;16.27;2.35;;;13.00;99.90;;;;;;4833866;29;20064;-85
2022/11/09 09:11:30;;;;;;;10.98;2.33;;;13.10;99.90;;;;;;4821555;29;20049;-86
2022/11/09 09:13:56;;;;;;;16.30;1.83;;;13.10;99.90;;;;;;4805945;29;20041;-82
2022/11/09 09:16:21;;;;;;;15.43;2.40;;;13.20;99.90;;;;;;4835365;29;20045;-83
2022/11/09 09:18:50;;;;;;;14.70;2.53;;;13.50;99.90;;;;;;4834371;29;20046;-83
2022/11/09 09:25:04;;;;;;;13.02;2.47;;;13.80;99.90;;;;;;4848612;29;20133;-86
2022/11/09 09:46:41;;;;;;;11.85;2.92;;;13.50;99.90;;;;;;4773580;30;20046;-83
2022/11/09 09:57:10;;;;;;;22.65;3.08;;;13.70;99.90;;;;;;4773547;30;20042;-82
2022/11/09 10:03:41;;;;;;;15.48;2.72;;;13.90;99.90;;;;;;4771566;30;20126;-83
2022/11/09 10:06:44;;;;;;;15.57;2.90;;;13.90;99.90;;;;;;4768837;30;20064;-84
2022/11/09 10:09:38;;;;;;;11.65;2.42;;;13.90;99.90;;;;;;4796060;29;20222;-82
2022/11/09 10:12:06;;;;;;;12.82;2.60;;;13.80;99.90;;;;;;4817588;29;20066;-82
2022/11/09 10:14:43;;;;;;;25.58;3.33;;;14.00;99.90;;;;;;4834811;29;20084;-86
2022/11/09 10:17:28;;;;;;;11.30;2.03;;;13.90;99.90;;;;;;4829273;29;20046;-84
2022/11/09 10:20:24;;;;;;;11.50;2.22;;;13.90;99.90;;;;;;4808992;29;20129;-85
2022/11/09 10:23:18;;;;;;;8.98;1.75;;;13.60;99.90;;;;;;4816394;29;20085;-82
2022/11/09 10:26:00;;;;;;;11.60;2.30;;;14.20;99.90;;;;;;4823783;29;20050;-83
2022/11/09 10:28:28;;;;;;;9.93;1.90;;;14.20;99.90;;;;;;4827239;29;20105;-82
2022/11/09 10:30:54;;;;;;;10.63;2.03;;;14.90;99.90;;;;;;4834465;29;20122;-84
2022/11/09 10:33:32;;;;;;;12.07;2.30;;;14.30;99.90;;;;;;4826530;29;20065;-82
2022/11/09 10:36:20;;;;;;;53.97;4.68;;;14.30;99.90;;;;;;4827200;29;20101;-85
2022/11/09 10:38:57;;;;;;;15.00;3.08;;;14.30;99.90;;;;;;4838657;29;20046;-84
2022/11/09 10:41:46;;;;;;;58.83;6.10;;;14.20;99.90;;;;;;4824383;29;21489;-83
2022/11/09 10:44:17;;;;;;;19.85;2.67;;;14.40;99.90;;;;;;4823279;29;20073;-82
2022/11/09 10:47:03;;;;;;;13.50;3.05;;;14.10;99.90;;;;;;4826066;29;20054;-84
2022/11/09 10:49:29;;;;;;;33.33;3.63;;;14.10;99.90;;;;;;4824548;29;20079;-82
2022/11/09 10:51:54;;;;;;;16.50;3.45;;;14.00;99.90;;;;;;4816401;29;20038;-84
2022/11/09 10:54:32;;;;;;;65.85;5.93;;;14.00;99.90;;;;;;4824462;29;20067;-82
2022/11/09 10:57:10;;;;;;;17.13;3.50;;;14.10;99.90;;;;;;4823881;29;20049;-86
2022/11/09 10:59:42;;;;;;;25.02;2.88;;;14.20;99.90;;;;;;4822639;29;20046;-85
2022/11/09 11:02:25;;;;;;;18.05;2.75;;;14.20;99.90;;;;;;4821945;29;20057;-82
2022/11/09 11:05:09;;;;;;;11.65;2.30;;;14.30;99.90;;;;;;4819603;29;20049;-82
2022/11/09 11:07:35;;;;;;;18.40;3.10;;;14.60;99.90;;;;;;4838209;29;20124;-82
2022/11/09 11:10:21;;;;;;;23.65;3.28;;;14.60;99.90;;;;;;4821750;29;20206;-82
2022/11/09 11:12:59;;;;;;;19.75;3.42;;;14.80;99.90;;;;;;4822955;29;20081;-83
2022/11/09 11:27:07;;;;;;;18.23;3.40;;;15.10;99.90;;;;;;4843071;29;20060;-85
2022/11/09 11:30:41;;;;;;;;;;;;;;;;;;;;;
2022/11/09 11:33:22;;;;;;;23.42;2.58;;;14.80;99.90;;;;;;4747558;30;20048;-84
2022/11/09 11:36:27;;;;;;;13.68;2.38;;;14.80;99.90;;;;;;4824133;29;20065;-87
2022/11/09 11:39:18;;;;;;;23.05;2.58;;;14.70;99.90;;;;;;4816591;29;20044;-84
2022/11/09 11:42:09;;;;;;;16.60;3.22;;;14.60;99.90;;;;;;4833049;29;20114;-86
2022/11/09 11:45:31;;;;;;;10.85;2.30;;;14.60;99.90;;;;;;4815449;29;20046;-83
2022/11/09 11:48:33;;;;;;;14.60;2.50;;;14.40;99.90;;;;;;4832501;29;20053;-85
2022/11/09 11:51:42;;;;;;;13.27;2.10;;;14.30;99.90;;;;;;4816766;29;20054;-83
2022/11/09 11:55:10;;;;;;;16.20;2.35;;;14.30;99.90;;;;;;4851972;29;20061;-83
2022/11/09 11:58:14;;;;;;;15.30;2.65;;;14.30;99.90;;;;;;4817964;29;20097;-83
2022/11/09 12:01:41;;;;;;;18.88;1.75;;;14.20;99.90;;;;;;4801827;29;20484;-84
2022/11/09 12:08:03;;;;;;;12.05;2.08;;;14.20;99.90;;;;;;4830915;29;20094;-84
2022/11/09 12:11:03;;;;;;;17.08;2.20;;;14.10;99.90;;;;;;4834186;29;20030;-82
2022/11/09 12:14:04;;;;;;;16.77;1.75;;;14.10;99.90;;;;;;4836281;29;20048;-82
2022/11/09 12:16:53;;;;;;;17.65;1.92;;;14.10;99.90;;;;;;4837424;29;20049;-83
2022/11/09 12:19:57;;;;;;;19.95;1.52;;;14.00;99.90;;;;;;4819387;29;20037;-83
2022/11/09 12:22:25;;;;;;;25.50;2.30;;;14.00;99.90;;;;;;4834038;29;20050;-82
2022/11/09 12:25:39;;;;;;;16.17;2.05;;;14.00;99.90;;;;;;4811695;29;20058;-83
2022/11/09 12:28:39;;;;;;;13.45;1.77;;;14.00;99.90;;;;;;4823747;29;20489;-85
2022/11/09 12:31:34;;;;;;;6.38;1.33;;;14.00;99.90;;;;;;4820198;29;20533;-84
2022/11/09 12:34:04;;;;;;;8.18;1.33;;;14.10;99.90;;;;;;4819454;29;20077;-84
2022/11/09 12:36:58;;;;;;;17.10;2.10;;;14.10;99.90;;;;;;4847912;29;20776;-85
2022/11/09 12:39:53;;;;;;;24.95;4.00;;;14.10;99.90;;;;;;4821642;29;20030;-86
2022/11/09 12:42:48;;;;;;;13.13;1.60;;;14.10;99.90;;;;;;4723307;30;20060;-83
2022/11/09 12:45:34;;;;;;;41.83;3.00;;;14.10;99.90;;;;;;4694523;30;20041;-82
2022/11/09 12:48:28;;;;;;;17.42;2.20;;;14.10;99.90;;;;;;4821924;29;20046;-82
2022/11/09 12:50:55;;;;;;;17.65;1.75;;;14.30;99.90;;;;;;4848519;29;20048;-83
2022/11/09 12:53:32;;;;;;;18.08;2.47;;;13.90;99.90;;;;;;4821159;29;20053;-82
2022/11/09 12:56:09;;;;;;;13.13;2.13;;;13.80;99.90;;;;;;4821847;29;20063;-84
2022/11/09 12:58:38;;;;;;;19.15;2.38;;;13.90;99.90;;;;;;4812288;29;20046;-85
2022/11/09 13:02:02;;;;;;;17.15;2.05;;;13.80;99.90;;;;;;4821777;29;20054;-83
2022/11/09 13:04:28;;;;;;;7.10;1.38;;;13.80;99.90;;;;;;4751126;30;20166;-85
2022/11/09 13:07:20;;;;;;;7.97;1.30;;;13.80;99.90;;;;;;4769486;30;20051;-83
2022/11/09 13:10:21;;;;;;;7.18;1.25;;;13.80;99.90;;;;;;4812640;29;20062;-82
2022/11/09 13:12:46;;;;;;;8.48;0.98;;;13.80;99.90;;;;;;4813910;29;20631;-82
2022/11/09 13:15:26;;;;;;;10.70;1.13;;;14.70;99.90;;;;;;4822023;29;20042;-82
2022/11/09 13:18:21;;;;;;;7.97;1.23;;;13.90;99.90;;;;;;4814901;29;20046;-83
2022/11/09 13:21:24;;;;;;;8.18;1.00;;;13.90;99.90;;;;;;4828646;29;20057;-85
2022/11/09 13:24:00;;;;;;;12.05;1.27;;;13.90;99.90;;;;;;4820495;29;20046;-86
2022/11/09 13:27:29;;;;;;;;;;;;;;;;;;;;;
2022/11/09 13:30:44;;;;;;;12.52;1.58;;;14.00;99.90;;;;;;4779902;29;20137;-85
2022/11/09 13:33:34;;;;;;;;;;;14.30;99.90;;;;;;4797922;29;20045;-84
2022/11/09 13:36:50;;;;;;;11.18;1.20;;;14.30;99.90;;;;;;4806728;29;20570;-85
2022/11/09 13:39:31;;;;;;;11.90;1.42;;;14.30;99.90;;;;;;4817851;29;20120;-84
2022/11/09 13:41:57;;;;;;;7.55;1.13;;;14.40;99.90;;;;;;4813752;29;20101;-86
2022/11/09 13:44:28;;;;;;;11.98;1.55;;;14.30;99.90;;;;;;4828147;29;20045;-86
2022/11/09 13:46:56;;;;;;;6.93;1.15;;;14.80;99.90;;;;;;4814862;29;20050;-85
2022/11/09 13:49:46;;;;;;;9.57;0.75;;;13.60;99.90;;;;;;4813781;29;20046;-85
2022/11/09 13:52:50;;;;;;;8.73;0.70;;;14.00;99.90;;;;;;4809966;29;20102;-84
2022/11/09 13:55:55;;;;;;;5.30;0.70;;;14.00;99.90;;;;;;4839896;29;20083;-86
2022/11/09 13:58:39;;;;;;;7.25;0.70;;;14.00;99.90;;;;;;4826077;29;20077;-84
2022/11/09 14:01:25;;;;;;;6.15;0.93;;;14.00;99.90;;;;;;4812732;29;20109;-83
2022/11/09 14:03:57;;;;;;;11.32;1.05;;;14.00;99.90;;;;;;4839789;29;20083;-83
2022/11/09 14:06:23;;;;;;;3.08;0.50;;;13.80;99.90;;;;;;4829519;29;20109;-84
2022/11/09 14:08:50;;;;;;;5.82;0.65;;;13.80;99.90;;;;;;4833754;29;20116;-84